sensor_id;sensor_type;location;lat;lon;timestamp;P1;durP1;ratioP1;P2;durP2;ratioP2
17441;SDS011;8838;50.144;8.176;2022-07-23T00:00:06;9.60;;;6.35;;
17441;SDS011;8838;50.144;8.176;2022-07-23T00:02:35;8.77;;;6.65;;
17441;SDS011;8838;50.144;8.176;2022-07-23T00:05:02;9.90;;;6.82;;
17441;SDS011;8838;50.144;8.176;2022-07-23T00:07:29;8.50;;;6.18;;
17441;SDS011;8838;50.144;8.176;2022-07-23T00:09:56;7.53;;;5.90;;
17441;SDS011;8838;50.144;8.176;2022-07-23T00:12:23;8.40;;;5.43;;
17441;SDS011;8838;50.144;8.176;2022-07-23T00:14:50;10.48;;;6.53;;
17441;SDS011;8838;50.144;8.176;2022-07-23T00:17:17;9.57;;;6.07;;
17441;SDS011;8838;50.144;8.176;2022-07-23T00:19:45;9.10;;;6.30;;
17441;SDS011;8838;50.144;8.176;2022-07-23T00:22:12;9.32;;;5.93;;
17441;SDS011;8838;50.144;8.176;2022-07-23T00:24:39;10.57;;;6.68;;
17441;SDS011;8838;50.144;8.176;2022-07-23T00:27:06;10.18;;;6.20;;
17441;SDS011;8838;50.144;8.176;2022-07-23T00:29:33;11.32;;;6.90;;
17441;SDS011;8838;50.144;8.176;2022-07-23T00:32:00;8.50;;;6.07;;
17441;SDS011;8838;50.144;8.176;2022-07-23T00:34:27;8.82;;;5.85;;
17441;SDS011;8838;50.144;8.176;2022-07-23T00:36:55;10.00;;;5.90;;
17441;SDS011;8838;50.144;8.176;2022-07-23T00:39:22;10.60;;;6.20;;
17441;SDS011;8838;50.144;8.176;2022-07-23T00:41:49;9.90;;;6.45;;
17441;SDS011;8838;50.144;8.176;2022-07-23T00:44:18;12.00;;;6.32;;
17441;SDS011;8838;50.144;8.176;2022-07-23T00:46:46;10.48;;;6.40;;
17441;SDS011;8838;50.144;8.176;2022-07-23T00:49:14;10.27;;;6.53;;
17441;SDS011;8838;50.144;8.176;2022-07-23T00:51:41;10.43;;;7.10;;
17441;SDS011;8838;50.144;8.176;2022-07-23T00:54:09;8.75;;;7.10;;
17441;SDS011;8838;50.144;8.176;2022-07-23T00:56:37;9.07;;;6.72;;
17441;SDS011;8838;50.144;8.176;2022-07-23T00:59:03;9.15;;;6.00;;
17441;SDS011;8838;50.144;8.176;2022-07-23T01:01:32;8.32;;;6.32;;
17441;SDS011;8838;50.144;8.176;2022-07-23T01:03:58;8.75;;;6.97;;
17441;SDS011;8838;50.144;8.176;2022-07-23T01:06:25;9.32;;;6.57;;
17441;SDS011;8838;50.144;8.176;2022-07-23T01:08:52;7.70;;;6.43;;
17441;SDS011;8838;50.144;8.176;2022-07-23T01:11:22;8.40;;;6.25;;
17441;SDS011;8838;50.144;8.176;2022-07-23T01:13:50;8.18;;;6.78;;
17441;SDS011;8838;50.144;8.176;2022-07-23T01:16:18;8.27;;;6.47;;
17441;SDS011;8838;50.144;8.176;2022-07-23T01:18:45;8.63;;;7.18;;
17441;SDS011;8838;50.144;8.176;2022-07-23T01:21:12;9.52;;;6.53;;
17441;SDS011;8838;50.144;8.176;2022-07-23T01:23:41;11.65;;;7.78;;
17441;SDS011;8838;50.144;8.176;2022-07-23T01:26:08;14.10;;;7.43;;
17441;SDS011;8838;50.144;8.176;2022-07-23T01:28:35;10.18;;;6.97;;
17441;SDS011;8838;50.144;8.176;2022-07-23T01:31:02;10.35;;;7.25;;
17441;SDS011;8838;50.144;8.176;2022-07-23T01:33:29;10.70;;;7.28;;
17441;SDS011;8838;50.144;8.176;2022-07-23T01:35:56;11.50;;;7.10;;
17441;SDS011;8838;50.144;8.176;2022-07-23T01:38:23;10.93;;;7.53;;
17441;SDS011;8838;50.144;8.176;2022-07-23T01:40:51;10.55;;;7.75;;
17441;SDS011;8838;50.144;8.176;2022-07-23T01:43:18;11.40;;;7.72;;
17441;SDS011;8838;50.144;8.176;2022-07-23T01:45:45;11.48;;;7.72;;
17441;SDS011;8838;50.144;8.176;2022-07-23T01:48:12;8.52;;;7.57;;
17441;SDS011;8838;50.144;8.176;2022-07-23T01:50:40;11.95;;;7.90;;
17441;SDS011;8838;50.144;8.176;2022-07-23T01:53:07;11.80;;;7.85;;
17441;SDS011;8838;50.144;8.176;2022-07-23T01:55:34;9.45;;;7.93;;
17441;SDS011;8838;50.144;8.176;2022-07-23T01:58:02;9.63;;;8.15;;
17441;SDS011;8838;50.144;8.176;2022-07-23T02:00:30;11.88;;;8.50;;
17441;SDS011;8838;50.144;8.176;2022-07-23T02:02:57;11.98;;;7.90;;
17441;SDS011;8838;50.144;8.176;2022-07-23T02:05:24;12.13;;;8.52;;
17441;SDS011;8838;50.144;8.176;2022-07-23T02:07:53;15.95;;;9.43;;
17441;SDS011;8838;50.144;8.176;2022-07-23T02:10:21;16.48;;;9.27;;
17441;SDS011;8838;50.144;8.176;2022-07-23T02:12:48;11.55;;;9.13;;
17441;SDS011;8838;50.144;8.176;2022-07-23T02:15:16;12.93;;;8.70;;
17441;SDS011;8838;50.144;8.176;2022-07-23T02:17:43;15.45;;;10.27;;
17441;SDS011;8838;50.144;8.176;2022-07-23T02:20:11;12.57;;;9.30;;
17441;SDS011;8838;50.144;8.176;2022-07-23T02:22:38;16.75;;;10.63;;
17441;SDS011;8838;50.144;8.176;2022-07-23T02:25:06;13.43;;;9.32;;
17441;SDS011;8838;50.144;8.176;2022-07-23T02:27:33;16.52;;;10.05;;
17441;SDS011;8838;50.144;8.176;2022-07-23T02:30:01;12.45;;;9.73;;
17441;SDS011;8838;50.144;8.176;2022-07-23T02:32:29;14.48;;;9.05;;
17441;SDS011;8838;50.144;8.176;2022-07-23T02:34:56;14.82;;;9.25;;
17441;SDS011;8838;50.144;8.176;2022-07-23T02:37:23;11.35;;;9.43;;
17441;SDS011;8838;50.144;8.176;2022-07-23T02:39:50;16.10;;;9.18;;
17441;SDS011;8838;50.144;8.176;2022-07-23T02:42:17;14.43;;;8.90;;
17441;SDS011;8838;50.144;8.176;2022-07-23T02:44:44;13.50;;;9.80;;
17441;SDS011;8838;50.144;8.176;2022-07-23T02:47:11;10.82;;;9.10;;
17441;SDS011;8838;50.144;8.176;2022-07-23T02:49:39;11.77;;;9.60;;
17441;SDS011;8838;50.144;8.176;2022-07-23T02:52:06;12.13;;;9.63;;
17441;SDS011;8838;50.144;8.176;2022-07-23T02:54:35;11.57;;;8.80;;
17441;SDS011;8838;50.144;8.176;2022-07-23T02:57:02;13.35;;;9.38;;
17441;SDS011;8838;50.144;8.176;2022-07-23T02:59:29;13.52;;;9.45;;
17441;SDS011;8838;50.144;8.176;2022-07-23T03:01:56;12.60;;;9.48;;
17441;SDS011;8838;50.144;8.176;2022-07-23T03:04:23;12.20;;;9.35;;
17441;SDS011;8838;50.144;8.176;2022-07-23T03:06:51;14.05;;;9.90;;
17441;SDS011;8838;50.144;8.176;2022-07-23T03:09:18;15.55;;;9.20;;
17441;SDS011;8838;50.144;8.176;2022-07-23T03:11:45;13.88;;;9.38;;
17441;SDS011;8838;50.144;8.176;2022-07-23T03:14:11;12.77;;;9.20;;
17441;SDS011;8838;50.144;8.176;2022-07-23T03:16:41;12.25;;;8.95;;
17441;SDS011;8838;50.144;8.176;2022-07-23T03:19:08;17.25;;;9.20;;
17441;SDS011;8838;50.144;8.176;2022-07-23T03:21:34;14.00;;;8.80;;
17441;SDS011;8838;50.144;8.176;2022-07-23T03:24:06;11.02;;;9.23;;
17441;SDS011;8838;50.144;8.176;2022-07-23T03:26:33;14.48;;;10.13;;
17441;SDS011;8838;50.144;8.176;2022-07-23T03:29:00;12.85;;;10.02;;
17441;SDS011;8838;50.144;8.176;2022-07-23T03:31:28;13.02;;;9.50;;
17441;SDS011;8838;50.144;8.176;2022-07-23T03:33:56;13.98;;;9.65;;
17441;SDS011;8838;50.144;8.176;2022-07-23T03:36:23;11.07;;;8.70;;
17441;SDS011;8838;50.144;8.176;2022-07-23T03:38:50;12.13;;;9.68;;
17441;SDS011;8838;50.144;8.176;2022-07-23T03:41:19;14.45;;;9.75;;
17441;SDS011;8838;50.144;8.176;2022-07-23T03:43:46;13.52;;;10.13;;
17441;SDS011;8838;50.144;8.176;2022-07-23T03:46:13;11.13;;;9.55;;
17441;SDS011;8838;50.144;8.176;2022-07-23T03:48:40;15.05;;;10.70;;
17441;SDS011;8838;50.144;8.176;2022-07-23T03:51:07;14.93;;;10.55;;
17441;SDS011;8838;50.144;8.176;2022-07-23T03:53:34;13.23;;;10.65;;
17441;SDS011;8838;50.144;8.176;2022-07-23T03:56:00;14.27;;;11.20;;
17441;SDS011;8838;50.144;8.176;2022-07-23T03:58:29;17.20;;;12.07;;
17441;SDS011;8838;50.144;8.176;2022-07-23T04:00:56;15.68;;;11.65;;
17441;SDS011;8838;50.144;8.176;2022-07-23T04:03:22;15.18;;;11.63;;
17441;SDS011;8838;50.144;8.176;2022-07-23T04:05:49;14.27;;;11.48;;
17441;SDS011;8838;50.144;8.176;2022-07-23T04:08:16;14.63;;;10.95;;
17441;SDS011;8838;50.144;8.176;2022-07-23T04:10:43;13.18;;;11.25;;
17441;SDS011;8838;50.144;8.176;2022-07-23T04:13:10;16.70;;;11.57;;
17441;SDS011;8838;50.144;8.176;2022-07-23T04:15:38;13.95;;;11.32;;
17441;SDS011;8838;50.144;8.176;2022-07-23T04:18:05;16.20;;;11.77;;
17441;SDS011;8838;50.144;8.176;2022-07-23T04:20:33;14.15;;;11.65;;
17441;SDS011;8838;50.144;8.176;2022-07-23T04:22:59;15.88;;;12.52;;
17441;SDS011;8838;50.144;8.176;2022-07-23T04:25:26;15.13;;;12.05;;
17441;SDS011;8838;50.144;8.176;2022-07-23T04:27:53;18.00;;;12.32;;
17441;SDS011;8838;50.144;8.176;2022-07-23T04:30:20;15.32;;;12.15;;
17441;SDS011;8838;50.144;8.176;2022-07-23T04:32:48;15.20;;;12.57;;
17441;SDS011;8838;50.144;8.176;2022-07-23T04:35:15;15.55;;;13.05;;
17441;SDS011;8838;50.144;8.176;2022-07-23T04:37:42;17.48;;;13.23;;
17441;SDS011;8838;50.144;8.176;2022-07-23T04:40:09;18.50;;;13.60;;
17441;SDS011;8838;50.144;8.176;2022-07-23T04:42:37;16.60;;;13.40;;
17441;SDS011;8838;50.144;8.176;2022-07-23T04:45:04;16.30;;;13.20;;
17441;SDS011;8838;50.144;8.176;2022-07-23T04:47:32;17.65;;;13.50;;
17441;SDS011;8838;50.144;8.176;2022-07-23T04:50:00;18.33;;;13.52;;
17441;SDS011;8838;50.144;8.176;2022-07-23T04:52:27;18.63;;;14.05;;
17441;SDS011;8838;50.144;8.176;2022-07-23T04:54:54;16.33;;;12.88;;
17441;SDS011;8838;50.144;8.176;2022-07-23T04:57:20;18.70;;;13.32;;
17441;SDS011;8838;50.144;8.176;2022-07-23T04:59:47;20.33;;;12.85;;
17441;SDS011;8838;50.144;8.176;2022-07-23T05:02:14;16.58;;;12.88;;
17441;SDS011;8838;50.144;8.176;2022-07-23T05:04:41;14.27;;;12.38;;
17441;SDS011;8838;50.144;8.176;2022-07-23T05:07:09;18.48;;;13.48;;
17441;SDS011;8838;50.144;8.176;2022-07-23T05:09:37;17.15;;;12.70;;
17441;SDS011;8838;50.144;8.176;2022-07-23T05:12:04;16.73;;;12.50;;
17441;SDS011;8838;50.144;8.176;2022-07-23T05:14:31;16.38;;;13.10;;
17441;SDS011;8838;50.144;8.176;2022-07-23T05:16:58;16.92;;;12.85;;
17441;SDS011;8838;50.144;8.176;2022-07-23T05:19:25;18.08;;;12.70;;
17441;SDS011;8838;50.144;8.176;2022-07-23T05:21:52;16.73;;;12.70;;
17441;SDS011;8838;50.144;8.176;2022-07-23T05:24:20;19.13;;;13.07;;
17441;SDS011;8838;50.144;8.176;2022-07-23T05:26:47;14.35;;;11.80;;
17441;SDS011;8838;50.144;8.176;2022-07-23T05:29:14;15.35;;;12.20;;
17441;SDS011;8838;50.144;8.176;2022-07-23T05:31:41;17.63;;;12.38;;
17441;SDS011;8838;50.144;8.176;2022-07-23T05:34:07;17.30;;;12.10;;
17441;SDS011;8838;50.144;8.176;2022-07-23T05:36:34;17.30;;;12.43;;
17441;SDS011;8838;50.144;8.176;2022-07-23T05:39:01;18.17;;;12.50;;
17441;SDS011;8838;50.144;8.176;2022-07-23T05:41:30;17.48;;;12.60;;
17441;SDS011;8838;50.144;8.176;2022-07-23T05:43:57;19.42;;;12.70;;
17441;SDS011;8838;50.144;8.176;2022-07-23T05:46:24;17.70;;;12.07;;
17441;SDS011;8838;50.144;8.176;2022-07-23T05:48:51;14.98;;;11.90;;
17441;SDS011;8838;50.144;8.176;2022-07-23T05:51:21;15.52;;;11.63;;
17441;SDS011;8838;50.144;8.176;2022-07-23T05:53:48;18.17;;;12.18;;
17441;SDS011;8838;50.144;8.176;2022-07-23T05:56:15;17.20;;;12.18;;
17441;SDS011;8838;50.144;8.176;2022-07-23T05:58:46;15.55;;;11.07;;
17441;SDS011;8838;50.144;8.176;2022-07-23T06:01:13;17.88;;;11.70;;
17441;SDS011;8838;50.144;8.176;2022-07-23T06:03:40;19.08;;;11.20;;
17441;SDS011;8838;50.144;8.176;2022-07-23T06:06:07;21.85;;;11.70;;
17441;SDS011;8838;50.144;8.176;2022-07-23T06:08:33;15.05;;;11.68;;
17441;SDS011;8838;50.144;8.176;2022-07-23T06:11:00;13.52;;;11.13;;
17441;SDS011;8838;50.144;8.176;2022-07-23T06:13:27;17.63;;;11.40;;
17441;SDS011;8838;50.144;8.176;2022-07-23T06:15:56;15.20;;;11.13;;
17441;SDS011;8838;50.144;8.176;2022-07-23T06:18:23;14.75;;;9.27;;
17441;SDS011;8838;50.144;8.176;2022-07-23T06:20:50;13.18;;;8.90;;
17441;SDS011;8838;50.144;8.176;2022-07-23T06:23:17;14.35;;;9.27;;
17441;SDS011;8838;50.144;8.176;2022-07-23T06:25:44;12.65;;;9.13;;
17441;SDS011;8838;50.144;8.176;2022-07-23T06:28:11;11.35;;;7.88;;
17441;SDS011;8838;50.144;8.176;2022-07-23T06:30:38;10.48;;;7.97;;
17441;SDS011;8838;50.144;8.176;2022-07-23T06:33:06;9.73;;;8.30;;
17441;SDS011;8838;50.144;8.176;2022-07-23T06:35:33;10.20;;;7.35;;
17441;SDS011;8838;50.144;8.176;2022-07-23T06:38:00;9.35;;;7.32;;
17441;SDS011;8838;50.144;8.176;2022-07-23T06:40:27;8.80;;;7.00;;
17441;SDS011;8838;50.144;8.176;2022-07-23T06:42:53;8.02;;;7.13;;
17441;SDS011;8838;50.144;8.176;2022-07-23T06:45:20;10.95;;;7.28;;
17441;SDS011;8838;50.144;8.176;2022-07-23T06:47:47;8.48;;;6.70;;
17441;SDS011;8838;50.144;8.176;2022-07-23T06:50:15;9.07;;;7.03;;
17441;SDS011;8838;50.144;8.176;2022-07-23T06:52:42;9.70;;;6.72;;
17441;SDS011;8838;50.144;8.176;2022-07-23T06:55:09;7.95;;;6.47;;
17441;SDS011;8838;50.144;8.176;2022-07-23T06:57:36;10.00;;;6.65;;
17441;SDS011;8838;50.144;8.176;2022-07-23T07:00:04;9.55;;;6.53;;
17441;SDS011;8838;50.144;8.176;2022-07-23T07:02:32;7.07;;;6.10;;
17441;SDS011;8838;50.144;8.176;2022-07-23T07:04:59;6.90;;;5.63;;
17441;SDS011;8838;50.144;8.176;2022-07-23T07:07:27;9.45;;;5.50;;
17441;SDS011;8838;50.144;8.176;2022-07-23T07:09:54;5.38;;;4.63;;
17441;SDS011;8838;50.144;8.176;2022-07-23T07:12:21;10.15;;;4.90;;
17441;SDS011;8838;50.144;8.176;2022-07-23T07:14:48;6.13;;;4.30;;
17441;SDS011;8838;50.144;8.176;2022-07-23T07:17:15;5.60;;;4.18;;
17441;SDS011;8838;50.144;8.176;2022-07-23T07:19:42;7.07;;;4.30;;
17441;SDS011;8838;50.144;8.176;2022-07-23T07:22:09;6.38;;;4.60;;
17441;SDS011;8838;50.144;8.176;2022-07-23T07:24:45;6.47;;;4.30;;
17441;SDS011;8838;50.144;8.176;2022-07-23T07:27:12;6.43;;;4.75;;
17441;SDS011;8838;50.144;8.176;2022-07-23T07:29:39;6.43;;;4.70;;
17441;SDS011;8838;50.144;8.176;2022-07-23T07:32:06;6.78;;;4.80;;
17441;SDS011;8838;50.144;8.176;2022-07-23T07:34:32;8.05;;;4.82;;
17441;SDS011;8838;50.144;8.176;2022-07-23T07:36:59;7.70;;;4.90;;
17441;SDS011;8838;50.144;8.176;2022-07-23T07:39:26;8.68;;;4.50;;
17441;SDS011;8838;50.144;8.176;2022-07-23T07:41:54;8.55;;;4.82;;
17441;SDS011;8838;50.144;8.176;2022-07-23T07:44:21;6.57;;;4.00;;
17441;SDS011;8838;50.144;8.176;2022-07-23T07:46:48;7.28;;;4.57;;
17441;SDS011;8838;50.144;8.176;2022-07-23T07:49:15;6.47;;;4.18;;
17441;SDS011;8838;50.144;8.176;2022-07-23T07:51:44;7.70;;;4.57;;
17441;SDS011;8838;50.144;8.176;2022-07-23T07:54:11;4.82;;;4.32;;
17441;SDS011;8838;50.144;8.176;2022-07-23T07:56:38;5.43;;;4.18;;
17441;SDS011;8838;50.144;8.176;2022-07-23T07:59:07;4.90;;;4.10;;
17441;SDS011;8838;50.144;8.176;2022-07-23T08:01:34;8.23;;;4.47;;
17441;SDS011;8838;50.144;8.176;2022-07-23T08:04:01;6.38;;;4.68;;
17441;SDS011;8838;50.144;8.176;2022-07-23T08:06:28;5.43;;;4.70;;
17441;SDS011;8838;50.144;8.176;2022-07-23T08:08:55;4.70;;;3.90;;
17441;SDS011;8838;50.144;8.176;2022-07-23T08:11:22;7.65;;;4.22;;
17441;SDS011;8838;50.144;8.176;2022-07-23T08:13:48;5.20;;;4.28;;
17441;SDS011;8838;50.144;8.176;2022-07-23T08:16:17;4.90;;;4.40;;
17441;SDS011;8838;50.144;8.176;2022-07-23T08:18:44;6.72;;;4.90;;
17441;SDS011;8838;50.144;8.176;2022-07-23T08:21:11;5.95;;;5.35;;
17441;SDS011;8838;50.144;8.176;2022-07-23T08:23:39;5.78;;;4.80;;
17441;SDS011;8838;50.144;8.176;2022-07-23T08:26:06;7.15;;;5.05;;
17441;SDS011;8838;50.144;8.176;2022-07-23T08:28:33;8.13;;;5.03;;
17441;SDS011;8838;50.144;8.176;2022-07-23T08:31:00;7.75;;;5.30;;
17441;SDS011;8838;50.144;8.176;2022-07-23T08:33:29;5.68;;;5.05;;
17441;SDS011;8838;50.144;8.176;2022-07-23T08:35:56;5.53;;;4.68;;
17441;SDS011;8838;50.144;8.176;2022-07-23T08:38:23;7.32;;;5.13;;
17441;SDS011;8838;50.144;8.176;2022-07-23T08:40:52;7.97;;;5.43;;
17441;SDS011;8838;50.144;8.176;2022-07-23T08:43:23;10.15;;;5.78;;
17441;SDS011;8838;50.144;8.176;2022-07-23T08:45:52;8.30;;;5.55;;
17441;SDS011;8838;50.144;8.176;2022-07-23T08:48:22;8.70;;;6.20;;
17441;SDS011;8838;50.144;8.176;2022-07-23T08:50:52;8.02;;;5.55;;
17441;SDS011;8838;50.144;8.176;2022-07-23T08:53:20;8.02;;;5.63;;
17441;SDS011;8838;50.144;8.176;2022-07-23T08:55:50;5.65;;;5.10;;
17441;SDS011;8838;50.144;8.176;2022-07-23T08:58:18;9.65;;;5.20;;
17441;SDS011;8838;50.144;8.176;2022-07-23T09:00:46;6.85;;;5.30;;
17441;SDS011;8838;50.144;8.176;2022-07-23T09:03:15;5.85;;;4.55;;
17441;SDS011;8838;50.144;8.176;2022-07-23T09:05:43;6.68;;;4.88;;
17441;SDS011;8838;50.144;8.176;2022-07-23T09:08:12;5.00;;;4.43;;
17441;SDS011;8838;50.144;8.176;2022-07-23T09:10:43;5.07;;;4.32;;
17441;SDS011;8838;50.144;8.176;2022-07-23T09:16:03;5.97;;;4.30;;
17441;SDS011;8838;50.144;8.176;2022-07-23T09:18:32;9.20;;;4.70;;
17441;SDS011;8838;50.144;8.176;2022-07-23T09:21:05;4.82;;;4.35;;
17441;SDS011;8838;50.144;8.176;2022-07-23T09:23:39;5.03;;;3.92;;
17441;SDS011;8838;50.144;8.176;2022-07-23T09:26:18;5.47;;;3.95;;
17441;SDS011;8838;50.144;8.176;2022-07-23T09:28:52;5.10;;;4.32;;
17441;SDS011;8838;50.144;8.176;2022-07-23T09:31:21;5.80;;;3.92;;
17441;SDS011;8838;50.144;8.176;2022-07-23T09:33:49;7.05;;;4.43;;
17441;SDS011;8838;50.144;8.176;2022-07-23T09:36:22;5.10;;;4.28;;
17441;SDS011;8838;50.144;8.176;2022-07-23T09:38:55;4.40;;;4.00;;
17441;SDS011;8838;50.144;8.176;2022-07-23T09:41:22;6.43;;;4.15;;
17441;SDS011;8838;50.144;8.176;2022-07-23T09:43:54;5.30;;;3.85;;
17441;SDS011;8838;50.144;8.176;2022-07-23T09:46:22;6.10;;;4.32;;
17441;SDS011;8838;50.144;8.176;2022-07-23T09:48:50;10.05;;;4.57;;
17441;SDS011;8838;50.144;8.176;2022-07-23T09:51:18;6.07;;;4.32;;
17441;SDS011;8838;50.144;8.176;2022-07-23T09:53:50;5.25;;;3.90;;
17441;SDS011;8838;50.144;8.176;2022-07-23T09:56:18;5.70;;;4.05;;
17441;SDS011;8838;50.144;8.176;2022-07-23T09:58:47;6.50;;;4.07;;
17441;SDS011;8838;50.144;8.176;2022-07-23T10:01:17;4.90;;;3.75;;
17441;SDS011;8838;50.144;8.176;2022-07-23T10:03:46;5.18;;;4.25;;
17441;SDS011;8838;50.144;8.176;2022-07-23T10:06:13;6.57;;;3.80;;
17441;SDS011;8838;50.144;8.176;2022-07-23T10:08:40;4.30;;;3.90;;
17441;SDS011;8838;50.144;8.176;2022-07-23T10:11:10;5.80;;;4.10;;
17441;SDS011;8838;50.144;8.176;2022-07-23T10:13:40;7.10;;;4.10;;
17441;SDS011;8838;50.144;8.176;2022-07-23T10:16:22;6.20;;;3.95;;
17441;SDS011;8838;50.144;8.176;2022-07-23T10:18:49;4.95;;;4.28;;
17441;SDS011;8838;50.144;8.176;2022-07-23T10:21:18;4.93;;;4.13;;
17441;SDS011;8838;50.144;8.176;2022-07-23T10:23:57;7.90;;;3.85;;
17441;SDS011;8838;50.144;8.176;2022-07-23T10:26:31;6.47;;;4.30;;
17441;SDS011;8838;50.144;8.176;2022-07-23T10:29:09;5.05;;;4.22;;
17441;SDS011;8838;50.144;8.176;2022-07-23T10:31:47;5.10;;;4.43;;
17441;SDS011;8838;50.144;8.176;2022-07-23T10:34:21;5.22;;;4.40;;
17441;SDS011;8838;50.144;8.176;2022-07-23T10:36:56;6.20;;;4.38;;
17441;SDS011;8838;50.144;8.176;2022-07-23T10:39:28;4.80;;;4.30;;
17441;SDS011;8838;50.144;8.176;2022-07-23T10:42:07;5.97;;;4.10;;
17441;SDS011;8838;50.144;8.176;2022-07-23T10:44:41;7.20;;;4.85;;
17441;SDS011;8838;50.144;8.176;2022-07-23T10:47:10;6.38;;;4.45;;
17441;SDS011;8838;50.144;8.176;2022-07-23T10:49:46;6.90;;;4.80;;
17441;SDS011;8838;50.144;8.176;2022-07-23T10:52:17;6.35;;;4.70;;
17441;SDS011;8838;50.144;8.176;2022-07-23T10:54:46;5.03;;;4.53;;
17441;SDS011;8838;50.144;8.176;2022-07-23T10:57:16;5.75;;;4.35;;
17441;SDS011;8838;50.144;8.176;2022-07-23T11:02:52;6.10;;;4.72;;
17441;SDS011;8838;50.144;8.176;2022-07-23T11:05:21;6.05;;;4.80;;
17441;SDS011;8838;50.144;8.176;2022-07-23T11:10:40;5.50;;;4.47;;
17441;SDS011;8838;50.144;8.176;2022-07-23T11:13:25;9.63;;;4.65;;
17441;SDS011;8838;50.144;8.176;2022-07-23T11:16:04;6.47;;;4.43;;
17441;SDS011;8838;50.144;8.176;2022-07-23T11:19:03;6.18;;;4.70;;
17441;SDS011;8838;50.144;8.176;2022-07-23T11:21:47;8.63;;;4.85;;
17441;SDS011;8838;50.144;8.176;2022-07-23T11:24:21;5.78;;;4.68;;
17441;SDS011;8838;50.144;8.176;2022-07-23T11:26:54;5.20;;;4.53;;
17441;SDS011;8838;50.144;8.176;2022-07-23T11:29:44;5.30;;;4.80;;
17441;SDS011;8838;50.144;8.176;2022-07-23T11:32:35;5.68;;;4.45;;
17441;SDS011;8838;50.144;8.176;2022-07-23T11:37:54;10.27;;;5.13;;
17441;SDS011;8838;50.144;8.176;2022-07-23T11:40:29;8.30;;;4.93;;
17441;SDS011;8838;50.144;8.176;2022-07-23T11:42:57;5.78;;;5.18;;
17441;SDS011;8838;50.144;8.176;2022-07-23T11:45:29;7.07;;;5.60;;
17441;SDS011;8838;50.144;8.176;2022-07-23T11:47:57;5.22;;;4.65;;
17441;SDS011;8838;50.144;8.176;2022-07-23T11:50:26;8.10;;;5.28;;
17441;SDS011;8838;50.144;8.176;2022-07-23T11:52:53;5.78;;;5.15;;
17441;SDS011;8838;50.144;8.176;2022-07-23T11:55:21;5.35;;;4.85;;
17441;SDS011;8838;50.144;8.176;2022-07-23T11:57:50;6.85;;;5.20;;
17441;SDS011;8838;50.144;8.176;2022-07-23T12:00:19;6.93;;;5.32;;
17441;SDS011;8838;50.144;8.176;2022-07-23T12:02:48;5.55;;;5.00;;
17441;SDS011;8838;50.144;8.176;2022-07-23T12:05:17;5.85;;;5.00;;
17441;SDS011;8838;50.144;8.176;2022-07-23T12:07:48;5.65;;;5.10;;
17441;SDS011;8838;50.144;8.176;2022-07-23T12:10:16;5.35;;;4.85;;
17441;SDS011;8838;50.144;8.176;2022-07-23T12:12:45;6.68;;;4.93;;
17441;SDS011;8838;50.144;8.176;2022-07-23T12:15:14;5.80;;;4.97;;
17441;SDS011;8838;50.144;8.176;2022-07-23T12:17:48;8.02;;;5.35;;
17441;SDS011;8838;50.144;8.176;2022-07-23T12:20:16;6.47;;;4.90;;
17441;SDS011;8838;50.144;8.176;2022-07-23T12:22:46;6.25;;;5.32;;
17441;SDS011;8838;50.144;8.176;2022-07-23T12:25:15;6.80;;;4.85;;
17441;SDS011;8838;50.144;8.176;2022-07-23T12:27:44;7.28;;;5.03;;
17441;SDS011;8838;50.144;8.176;2022-07-23T12:30:16;6.53;;;4.90;;
17441;SDS011;8838;50.144;8.176;2022-07-23T12:32:44;7.28;;;5.22;;
17441;SDS011;8838;50.144;8.176;2022-07-23T12:35:14;5.63;;;4.90;;
17441;SDS011;8838;50.144;8.176;2022-07-23T12:37:42;8.65;;;5.28;;
17441;SDS011;8838;50.144;8.176;2022-07-23T12:40:28;6.78;;;5.05;;
17441;SDS011;8838;50.144;8.176;2022-07-23T12:42:57;5.68;;;5.18;;
17441;SDS011;8838;50.144;8.176;2022-07-23T12:45:25;8.30;;;4.97;;
17441;SDS011;8838;50.144;8.176;2022-07-23T12:48:01;6.07;;;4.68;;
17441;SDS011;8838;50.144;8.176;2022-07-23T12:50:43;9.63;;;4.90;;
17441;SDS011;8838;50.144;8.176;2022-07-23T12:53:14;8.10;;;5.25;;
17441;SDS011;8838;50.144;8.176;2022-07-23T12:55:45;7.30;;;4.90;;
17441;SDS011;8838;50.144;8.176;2022-07-23T12:58:14;7.63;;;4.90;;
17441;SDS011;8838;50.144;8.176;2022-07-23T13:03:34;6.43;;;5.22;;
17441;SDS011;8838;50.144;8.176;2022-07-23T13:06:08;8.13;;;5.18;;
17441;SDS011;8838;50.144;8.176;2022-07-23T13:08:37;6.28;;;5.25;;
17441;SDS011;8838;50.144;8.176;2022-07-23T13:11:07;8.40;;;4.90;;
17441;SDS011;8838;50.144;8.176;2022-07-23T13:13:35;8.25;;;4.82;;
17441;SDS011;8838;50.144;8.176;2022-07-23T13:16:02;6.38;;;5.32;;
17441;SDS011;8838;50.144;8.176;2022-07-23T13:18:29;5.50;;;4.88;;
17441;SDS011;8838;50.144;8.176;2022-07-23T13:20:57;9.00;;;5.07;;
17441;SDS011;8838;50.144;8.176;2022-07-23T13:23:24;8.88;;;4.93;;
17441;SDS011;8838;50.144;8.176;2022-07-23T13:25:51;6.13;;;5.10;;
17441;SDS011;8838;50.144;8.176;2022-07-23T13:28:20;7.32;;;4.60;;
17441;SDS011;8838;50.144;8.176;2022-07-23T13:30:49;5.88;;;4.75;;
17441;SDS011;8838;50.144;8.176;2022-07-23T13:33:18;6.20;;;5.00;;
17441;SDS011;8838;50.144;8.176;2022-07-23T13:35:45;6.13;;;4.53;;
17441;SDS011;8838;50.144;8.176;2022-07-23T13:38:13;7.25;;;5.30;;
17441;SDS011;8838;50.144;8.176;2022-07-23T13:40:40;7.80;;;5.10;;
17441;SDS011;8838;50.144;8.176;2022-07-23T13:43:11;6.13;;;4.82;;
17441;SDS011;8838;50.144;8.176;2022-07-23T13:45:41;5.57;;;5.00;;
17441;SDS011;8838;50.144;8.176;2022-07-23T13:48:09;7.18;;;5.15;;
17441;SDS011;8838;50.144;8.176;2022-07-23T13:50:37;6.13;;;4.97;;
17441;SDS011;8838;50.144;8.176;2022-07-23T13:53:05;5.30;;;4.63;;
17441;SDS011;8838;50.144;8.176;2022-07-23T13:55:34;5.60;;;4.95;;
17441;SDS011;8838;50.144;8.176;2022-07-23T13:58:01;6.85;;;4.85;;
17441;SDS011;8838;50.144;8.176;2022-07-23T14:00:29;5.55;;;4.10;;
17441;SDS011;8838;50.144;8.176;2022-07-23T14:02:58;6.15;;;4.50;;
17441;SDS011;8838;50.144;8.176;2022-07-23T14:05:25;8.00;;;4.45;;
17441;SDS011;8838;50.144;8.176;2022-07-23T14:07:53;4.97;;;4.45;;
17441;SDS011;8838;50.144;8.176;2022-07-23T14:10:20;5.88;;;4.32;;
17441;SDS011;8838;50.144;8.176;2022-07-23T14:12:49;6.47;;;4.35;;
17441;SDS011;8838;50.144;8.176;2022-07-23T14:15:17;5.22;;;4.40;;
17441;SDS011;8838;50.144;8.176;2022-07-23T14:17:45;6.13;;;4.55;;
17441;SDS011;8838;50.144;8.176;2022-07-23T14:20:13;5.85;;;4.38;;
17441;SDS011;8838;50.144;8.176;2022-07-23T14:22:41;5.05;;;4.30;;
17441;SDS011;8838;50.144;8.176;2022-07-23T14:25:08;5.43;;;4.65;;
17441;SDS011;8838;50.144;8.176;2022-07-23T14:27:36;4.20;;;3.80;;
17441;SDS011;8838;50.144;8.176;2022-07-23T14:30:04;5.03;;;3.53;;
17441;SDS011;8838;50.144;8.176;2022-07-23T14:32:31;4.68;;;4.10;;
17441;SDS011;8838;50.144;8.176;2022-07-23T14:34:58;5.20;;;3.80;;
17441;SDS011;8838;50.144;8.176;2022-07-23T14:37:27;5.68;;;4.00;;
17441;SDS011;8838;50.144;8.176;2022-07-23T14:39:54;4.30;;;3.85;;
17441;SDS011;8838;50.144;8.176;2022-07-23T14:42:21;6.25;;;3.95;;
17441;SDS011;8838;50.144;8.176;2022-07-23T14:44:48;4.55;;;3.92;;
17441;SDS011;8838;50.144;8.176;2022-07-23T14:47:15;7.70;;;3.80;;
17441;SDS011;8838;50.144;8.176;2022-07-23T14:49:42;4.30;;;3.72;;
17441;SDS011;8838;50.144;8.176;2022-07-23T14:52:09;6.22;;;3.78;;
17441;SDS011;8838;50.144;8.176;2022-07-23T14:54:37;4.90;;;3.30;;
17441;SDS011;8838;50.144;8.176;2022-07-23T14:57:04;5.00;;;3.40;;
17441;SDS011;8838;50.144;8.176;2022-07-23T14:59:32;4.07;;;3.67;;
17441;SDS011;8838;50.144;8.176;2022-07-23T15:02:00;7.65;;;5.40;;
17441;SDS011;8838;50.144;8.176;2022-07-23T15:04:27;5.47;;;4.70;;
17441;SDS011;8838;50.144;8.176;2022-07-23T15:06:54;5.10;;;4.60;;
17441;SDS011;8838;50.144;8.176;2022-07-23T15:09:20;5.70;;;3.75;;
17441;SDS011;8838;50.144;8.176;2022-07-23T15:11:49;4.68;;;3.42;;
17441;SDS011;8838;50.144;8.176;2022-07-23T15:14:16;6.15;;;4.20;;